Bogard, Indiana
Current Conditions -  °F | °C
As of 6:15 AM on Sunday 25 Jan 2015 (Local Time) from KDCY Reporting Station
Scattered Clouds Scattered Clouds  
Wind Chill: 31°   Ceiling: Unl
Heat Index: 36°   Visibility: 10mi
Dew Point: 29°   Wind: 7mph
Humidity: 76%   Direction: 170°S
Pressure: 29.66"   Gusts: NA
Location:  38.7791°N, 87.1828°W
Report Text: KDCY 251215Z AUTO 17006KT 10SM SCT110 02/M01 A2966 RMK AO2 T00241015
Loading
Personal Weather Stations






























Interactive Weather Map New forecast layout! Learn more

10-Day Weather Forecast

Advertisements
Track Severe Weather on mobile